sensor_id;sensor_type;location;lat;lon;timestamp;pressure;altitude;pressure_sealevel;temperature;humidity
63088;BME280;49173;43.164;27.786;2023-02-24T00:01:36;101059.09;;;5.82;84.22
63088;BME280;49173;43.164;27.786;2023-02-24T00:04:13;101064.22;;;5.92;83.47
63088;BME280;49173;43.164;27.786;2023-02-24T00:06:41;101063.41;;;5.87;83.57
63088;BME280;49173;43.164;27.786;2023-02-24T00:09:20;101056.28;;;5.88;83.63
63088;BME280;49173;43.164;27.786;2023-02-24T00:11:53;101067.97;;;5.82;83.38
63088;BME280;49173;43.164;27.786;2023-02-24T00:14:20;101048.44;;;5.82;83.77
63088;BME280;49173;43.164;27.786;2023-02-24T00:16:48;101041.19;;;5.88;83.25
63088;BME280;49173;43.164;27.786;2023-02-24T00:19:16;101035.00;;;5.88;83.47
63088;BME280;49173;43.164;27.786;2023-02-24T00:21:44;101037.59;;;5.89;83.17
63088;BME280;49173;43.164;27.786;2023-02-24T00:24:10;101039.31;;;5.93;83.29
63088;BME280;49173;43.164;27.786;2023-02-24T00:26:36;101044.59;;;5.95;83.07
63088;BME280;49173;43.164;27.786;2023-02-24T00:29:04;101031.19;;;5.98;83.02
63088;BME280;49173;43.164;27.786;2023-02-24T00:31:31;101038.25;;;6.00;82.90
63088;BME280;49173;43.164;27.786;2023-02-24T00:33:58;101029.50;;;5.95;82.53
63088;BME280;49173;43.164;27.786;2023-02-24T00:36:26;101020.63;;;5.95;82.84
63088;BME280;49173;43.164;27.786;2023-02-24T00:38:58;101019.81;;;5.91;83.00
63088;BME280;49173;43.164;27.786;2023-02-24T00:41:26;101016.28;;;5.92;83.16
63088;BME280;49173;43.164;27.786;2023-02-24T00:43:55;101014.47;;;5.93;83.02
63088;BME280;49173;43.164;27.786;2023-02-24T00:46:23;101004.72;;;5.90;83.64
63088;BME280;49173;43.164;27.786;2023-02-24T00:48:51;101005.63;;;5.89;83.63
63088;BME280;49173;43.164;27.786;2023-02-24T00:51:21;101003.09;;;5.85;84.33
63088;BME280;49173;43.164;27.786;2023-02-24T00:53:53;100992.53;;;5.82;84.25
63088;BME280;49173;43.164;27.786;2023-02-24T00:56:23;100984.53;;;5.82;84.33
63088;BME280;49173;43.164;27.786;2023-02-24T00:58:52;100983.59;;;5.83;84.20
63088;BME280;49173;43.164;27.786;2023-02-24T01:01:20;100992.41;;;5.86;83.86
63088;BME280;49173;43.164;27.786;2023-02-24T01:03:49;100990.63;;;5.87;83.88
63088;BME280;49173;43.164;27.786;2023-02-24T01:06:17;100991.41;;;5.90;83.85
63088;BME280;49173;43.164;27.786;2023-02-24T01:08:47;100986.91;;;5.94;83.38
63088;BME280;49173;43.164;27.786;2023-02-24T01:11:19;100979.03;;;5.88;83.15
63088;BME280;49173;43.164;27.786;2023-02-24T01:14:06;100977.34;;;5.84;83.23
63088;BME280;49173;43.164;27.786;2023-02-24T01:16:33;100968.50;;;5.83;83.16
63088;BME280;49173;43.164;27.786;2023-02-24T01:19:00;100966.81;;;5.81;83.04
63088;BME280;49173;43.164;27.786;2023-02-24T01:21:26;100964.19;;;5.77;83.04
63088;BME280;49173;43.164;27.786;2023-02-24T01:23:52;100961.69;;;5.73;83.17
63088;BME280;49173;43.164;27.786;2023-02-24T01:26:18;100960.09;;;5.66;83.23
63088;BME280;49173;43.164;27.786;2023-02-24T01:28:45;100964.50;;;5.67;83.70
63088;BME280;49173;43.164;27.786;2023-02-24T01:31:11;100960.19;;;5.61;83.70
63088;BME280;49173;43.164;27.786;2023-02-24T01:33:37;100952.19;;;5.61;83.64
63088;BME280;49173;43.164;27.786;2023-02-24T01:36:12;100956.56;;;5.64;83.16
63088;BME280;49173;43.164;27.786;2023-02-24T01:38:39;100945.03;;;5.65;83.53
63088;BME280;49173;43.164;27.786;2023-02-24T01:41:09;100944.22;;;5.61;83.22
63088;BME280;49173;43.164;27.786;2023-02-24T01:43:57;100941.63;;;5.58;83.73
63088;BME280;49173;43.164;27.786;2023-02-24T01:46:34;100938.06;;;5.59;83.79
63088;BME280;49173;43.164;27.786;2023-02-24T01:51:46;100934.72;;;5.51;83.68
63088;BME280;49173;43.164;27.786;2023-02-24T01:54:16;100934.81;;;5.46;83.94
63088;BME280;49173;43.164;27.786;2023-02-24T01:56:44;100932.16;;;5.46;83.79
63088;BME280;49173;43.164;27.786;2023-02-24T01:59:12;100926.94;;;5.43;83.92
63088;BME280;49173;43.164;27.786;2023-02-24T02:01:41;100928.66;;;5.44;83.64
63088;BME280;49173;43.164;27.786;2023-02-24T02:04:38;100926.25;;;5.34;84.24
63088;BME280;49173;43.164;27.786;2023-02-24T02:07:06;100927.13;;;5.34;84.21
63088;BME280;49173;43.164;27.786;2023-02-24T02:09:37;100922.78;;;5.32;84.50
63088;BME280;49173;43.164;27.786;2023-02-24T02:12:02;100925.44;;;5.32;84.29
63088;BME280;49173;43.164;27.786;2023-02-24T02:14:29;100922.84;;;5.29;84.19
63088;BME280;49173;43.164;27.786;2023-02-24T02:23:21;100927.31;;;5.27;84.05
63088;BME280;49173;43.164;27.786;2023-02-24T02:26:31;100921.22;;;5.23;83.85
63088;BME280;49173;43.164;27.786;2023-02-24T02:29:15;100913.44;;;5.14;83.99
63088;BME280;49173;43.164;27.786;2023-02-24T02:34:54;100908.28;;;5.08;83.98
63088;BME280;49173;43.164;27.786;2023-02-24T02:37:51;100908.28;;;5.08;83.94
63088;BME280;49173;43.164;27.786;2023-02-24T02:40:36;100910.22;;;5.01;84.41
63088;BME280;49173;43.164;27.786;2023-02-24T02:43:30;100906.78;;;4.96;84.66
63088;BME280;49173;43.164;27.786;2023-02-24T02:46:15;100909.47;;;4.93;85.26
63088;BME280;49173;43.164;27.786;2023-02-24T02:48:52;100911.28;;;4.92;85.02
63088;BME280;49173;43.164;27.786;2023-02-24T02:51:23;100902.47;;;4.90;85.18
63088;BME280;49173;43.164;27.786;2023-02-24T02:53:58;100898.09;;;4.88;85.06
63088;BME280;49173;43.164;27.786;2023-02-24T02:57:03;100889.38;;;4.81;85.63
63088;BME280;49173;43.164;27.786;2023-02-24T02:59:36;100885.91;;;4.78;85.63
63088;BME280;49173;43.164;27.786;2023-02-24T03:02:05;100883.38;;;4.72;85.62
63088;BME280;49173;43.164;27.786;2023-02-24T03:04:45;100881.59;;;4.74;85.72
63088;BME280;49173;43.164;27.786;2023-02-24T03:07:15;100881.59;;;4.72;85.33
63088;BME280;49173;43.164;27.786;2023-02-24T03:09:50;100871.00;;;4.71;85.56
63088;BME280;49173;43.164;27.786;2023-02-24T03:12:20;100874.56;;;4.69;85.73
63088;BME280;49173;43.164;27.786;2023-02-24T03:14:59;100881.72;;;4.67;86.08
63088;BME280;49173;43.164;27.786;2023-02-24T03:17:29;100866.78;;;4.62;87.06
63088;BME280;49173;43.164;27.786;2023-02-24T03:20:04;100864.06;;;4.63;87.48
63088;BME280;49173;43.164;27.786;2023-02-24T03:22:45;100865.03;;;4.61;87.71
63088;BME280;49173;43.164;27.786;2023-02-24T03:25:14;100860.72;;;4.55;88.53
63088;BME280;49173;43.164;27.786;2023-02-24T03:27:48;100861.72;;;4.51;88.66
63088;BME280;49173;43.164;27.786;2023-02-24T03:30:22;100862.59;;;4.52;88.50
63088;BME280;49173;43.164;27.786;2023-02-24T03:35:37;100859.06;;;4.51;88.32
63088;BME280;49173;43.164;27.786;2023-02-24T03:38:04;100850.22;;;4.49;88.44
63088;BME280;49173;43.164;27.786;2023-02-24T03:40:31;100857.22;;;4.53;88.26
63088;BME280;49173;43.164;27.786;2023-02-24T03:43:19;100848.47;;;4.48;88.55
63088;BME280;49173;43.164;27.786;2023-02-24T03:45:47;100849.59;;;4.38;88.93
63088;BME280;49173;43.164;27.786;2023-02-24T03:48:14;100854.09;;;4.34;89.21
63088;BME280;49173;43.164;27.786;2023-02-24T03:50:41;100848.84;;;4.31;89.22
63088;BME280;49173;43.164;27.786;2023-02-24T03:53:23;100854.13;;;4.33;89.62
63088;BME280;49173;43.164;27.786;2023-02-24T03:56:09;100851.44;;;4.34;89.21
63088;BME280;49173;43.164;27.786;2023-02-24T04:01:38;100850.50;;;4.37;89.33
63088;BME280;49173;43.164;27.786;2023-02-24T04:07:08;100843.25;;;4.45;89.36
63088;BME280;49173;43.164;27.786;2023-02-24T04:09:38;100850.22;;;4.49;89.29
63088;BME280;49173;43.164;27.786;2023-02-24T04:12:28;100845.00;;;4.46;89.94
63088;BME280;49173;43.164;27.786;2023-02-24T04:15:17;100841.50;;;4.44;89.99
63088;BME280;49173;43.164;27.786;2023-02-24T04:17:54;100844.16;;;4.44;89.93
63088;BME280;49173;43.164;27.786;2023-02-24T04:20:24;100842.41;;;4.41;90.46
63088;BME280;49173;43.164;27.786;2023-02-24T04:22:58;100839.72;;;4.43;90.25
63088;BME280;49173;43.164;27.786;2023-02-24T04:25:26;100837.16;;;4.40;90.18
63088;BME280;49173;43.164;27.786;2023-02-24T04:27:54;100834.41;;;4.45;90.51
63088;BME280;49173;43.164;27.786;2023-02-24T04:30:25;100833.50;;;4.46;90.32
63088;BME280;49173;43.164;27.786;2023-02-24T04:32:52;100832.53;;;4.48;89.94
63088;BME280;49173;43.164;27.786;2023-02-24T04:35:24;100830.69;;;4.52;89.89
63088;BME280;49173;43.164;27.786;2023-02-24T04:37:51;100833.41;;;4.49;90.10
63088;BME280;49173;43.164;27.786;2023-02-24T04:40:19;100831.63;;;4.49;89.93
63088;BME280;49173;43.164;27.786;2023-02-24T04:42:51;100830.69;;;4.50;89.86
63088;BME280;49173;43.164;27.786;2023-02-24T04:45:18;100827.13;;;4.53;89.77
63088;BME280;49173;43.164;27.786;2023-02-24T04:47:47;100825.25;;;4.56;89.17
63088;BME280;49173;43.164;27.786;2023-02-24T04:50:19;100822.53;;;4.59;89.00
63088;BME280;49173;43.164;27.786;2023-02-24T04:52:52;100827.81;;;4.61;89.02
63088;BME280;49173;43.164;27.786;2023-02-24T04:55:21;100821.53;;;4.63;88.45
63088;BME280;49173;43.164;27.786;2023-02-24T04:58:03;100822.34;;;4.67;88.07
63088;BME280;49173;43.164;27.786;2023-02-24T05:00:31;100826.00;;;4.63;88.34
63088;BME280;49173;43.164;27.786;2023-02-24T05:03:07;100829.47;;;4.65;88.27
63088;BME280;49173;43.164;27.786;2023-02-24T05:05:35;100813.63;;;4.62;88.36
63088;BME280;49173;43.164;27.786;2023-02-24T05:10:54;100821.53;;;4.63;88.74
63088;BME280;49173;43.164;27.786;2023-02-24T05:13:24;100816.19;;;4.65;88.77
63088;BME280;49173;43.164;27.786;2023-02-24T05:15:56;100815.13;;;4.72;88.09
63088;BME280;49173;43.164;27.786;2023-02-24T05:18:24;100819.44;;;4.78;88.04
63088;BME280;49173;43.164;27.786;2023-02-24T05:20:53;100819.41;;;4.79;87.94
63088;BME280;49173;43.164;27.786;2023-02-24T05:23:40;100814.75;;;4.89;87.23
63088;BME280;49173;43.164;27.786;2023-02-24T05:26:10;100826.06;;;4.97;87.54
63088;BME280;49173;43.164;27.786;2023-02-24T05:28:38;100821.16;;;5.16;88.28
63088;BME280;49173;43.164;27.786;2023-02-24T05:31:09;100826.34;;;5.55;88.05
63088;BME280;49173;43.164;27.786;2023-02-24T05:33:36;100817.34;;;5.91;86.54
63088;BME280;49173;43.164;27.786;2023-02-24T05:36:04;100817.41;;;6.21;84.95
63088;BME280;49173;43.164;27.786;2023-02-24T05:38:31;100812.06;;;6.50;83.67
63088;BME280;49173;43.164;27.786;2023-02-24T05:41:28;100808.59;;;6.75;82.69
63088;BME280;49173;43.164;27.786;2023-02-24T05:44:02;100820.50;;;6.93;82.37
63088;BME280;49173;43.164;27.786;2023-02-24T05:46:34;100807.34;;;7.13;80.65
63088;BME280;49173;43.164;27.786;2023-02-24T05:49:04;100818.47;;;7.26;80.17
63088;BME280;49173;43.164;27.786;2023-02-24T05:51:35;100820.47;;;7.46;79.39
63088;BME280;49173;43.164;27.786;2023-02-24T05:54:05;100819.69;;;7.67;79.42
63088;BME280;49173;43.164;27.786;2023-02-24T05:56:33;100822.66;;;7.84;78.51
63088;BME280;49173;43.164;27.786;2023-02-24T05:59:02;100829.03;;;7.80;78.15
63088;BME280;49173;43.164;27.786;2023-02-24T06:01:44;100830.16;;;7.73;77.86
63088;BME280;49173;43.164;27.786;2023-02-24T06:04:10;100820.56;;;7.67;78.37
63088;BME280;49173;43.164;27.786;2023-02-24T06:06:47;100824.09;;;7.68;78.58
63088;BME280;49173;43.164;27.786;2023-02-24T06:09:20;100828.56;;;7.69;78.54
63088;BME280;49173;43.164;27.786;2023-02-24T06:11:48;100822.44;;;7.65;78.76
63088;BME280;49173;43.164;27.786;2023-02-24T06:14:14;100819.91;;;7.61;79.25
63088;BME280;49173;43.164;27.786;2023-02-24T06:16:41;100822.09;;;7.50;80.55
63088;BME280;49173;43.164;27.786;2023-02-24T06:19:11;100825.97;;;7.41;81.56
63088;BME280;49173;43.164;27.786;2023-02-24T06:21:39;100823.53;;;7.35;82.52
63088;BME280;49173;43.164;27.786;2023-02-24T06:24:13;100825.47;;;7.30;83.14
63088;BME280;49173;43.164;27.786;2023-02-24T06:26:43;100817.91;;;7.16;83.95
63088;BME280;49173;43.164;27.786;2023-02-24T06:29:16;100825.88;;;7.18;84.11
63088;BME280;49173;43.164;27.786;2023-02-24T06:31:42;100821.63;;;7.12;84.68
63088;BME280;49173;43.164;27.786;2023-02-24T06:34:09;100824.50;;;7.06;84.68
63088;BME280;49173;43.164;27.786;2023-02-24T06:36:39;100820.84;;;7.08;85.19
63088;BME280;49173;43.164;27.786;2023-02-24T06:39:04;100824.31;;;7.10;85.49
63088;BME280;49173;43.164;27.786;2023-02-24T06:41:34;100824.44;;;7.07;85.78
63088;BME280;49173;43.164;27.786;2023-02-24T06:44:00;100821.72;;;7.09;86.28
63088;BME280;49173;43.164;27.786;2023-02-24T06:46:26;100814.38;;;7.15;87.00
63088;BME280;49173;43.164;27.786;2023-02-24T06:48:53;100812.59;;;7.16;87.12
63088;BME280;49173;43.164;27.786;2023-02-24T06:51:18;100817.88;;;7.18;86.43
63088;BME280;49173;43.164;27.786;2023-02-24T06:53:44;100802.97;;;7.10;86.63
63088;BME280;49173;43.164;27.786;2023-02-24T06:56:12;100810.97;;;7.12;86.84
63088;BME280;49173;43.164;27.786;2023-02-24T06:58:46;100804.97;;;7.04;86.91
63088;BME280;49173;43.164;27.786;2023-02-24T07:01:16;100810.50;;;6.99;87.21
63088;BME280;49173;43.164;27.786;2023-02-24T07:03:43;100799.16;;;6.93;87.50
63088;BME280;49173;43.164;27.786;2023-02-24T07:06:53;100793.69;;;6.96;86.79
63088;BME280;49173;43.164;27.786;2023-02-24T07:09:25;100799.09;;;6.94;87.13
63088;BME280;49173;43.164;27.786;2023-02-24T07:11:52;100791.88;;;6.96;86.96
63088;BME280;49173;43.164;27.786;2023-02-24T07:14:25;100792.75;;;6.98;87.35
63088;BME280;49173;43.164;27.786;2023-02-24T07:16:51;100783.75;;;7.01;87.71
63088;BME280;49173;43.164;27.786;2023-02-24T07:19:28;100780.00;;;7.06;87.32
63088;BME280;49173;43.164;27.786;2023-02-24T07:21:58;100781.75;;;7.07;86.93
63088;BME280;49173;43.164;27.786;2023-02-24T07:24:27;100783.44;;;7.10;86.99
63088;BME280;49173;43.164;27.786;2023-02-24T07:27:13;100790.50;;;7.11;86.39
63088;BME280;49173;43.164;27.786;2023-02-24T07:29:46;100781.59;;;7.12;86.70
63088;BME280;49173;43.164;27.786;2023-02-24T07:32:15;100781.41;;;7.16;86.16
63088;BME280;49173;43.164;27.786;2023-02-24T07:34:43;100780.47;;;7.19;85.47
63088;BME280;49173;43.164;27.786;2023-02-24T07:37:09;100774.06;;;7.23;85.57
63088;BME280;49173;43.164;27.786;2023-02-24T07:39:37;100772.19;;;7.27;85.43
63088;BME280;49173;43.164;27.786;2023-02-24T07:42:06;100770.19;;;7.33;85.52
63088;BME280;49173;43.164;27.786;2023-02-24T07:44:32;100757.56;;;7.37;85.18
63088;BME280;49173;43.164;27.786;2023-02-24T07:46:58;100761.03;;;7.40;85.21
63088;BME280;49173;43.164;27.786;2023-02-24T07:49:26;100761.72;;;7.46;85.51
63088;BME280;49173;43.164;27.786;2023-02-24T07:51:54;100758.59;;;7.58;84.90
63088;BME280;49173;43.164;27.786;2023-02-24T07:54:23;100757.66;;;7.59;84.57
63088;BME280;49173;43.164;27.786;2023-02-24T07:56:49;100752.09;;;7.65;84.03
63088;BME280;49173;43.164;27.786;2023-02-24T07:59:28;100750.16;;;7.70;83.78
63088;BME280;49173;43.164;27.786;2023-02-24T08:01:55;100742.78;;;7.77;83.48
63088;BME280;49173;43.164;27.786;2023-02-24T08:04:25;100742.44;;;7.86;83.39
63088;BME280;49173;43.164;27.786;2023-02-24T08:06:52;100744.16;;;7.87;81.98
63088;BME280;49173;43.164;27.786;2023-02-24T08:09:26;100743.00;;;7.94;82.04
63088;BME280;49173;43.164;27.786;2023-02-24T08:12:15;100739.97;;;8.03;82.19
63088;BME280;49173;43.164;27.786;2023-02-24T08:14:52;100738.94;;;8.07;81.42
63088;BME280;49173;43.164;27.786;2023-02-24T08:17:23;100731.47;;;8.15;81.16
63088;BME280;49173;43.164;27.786;2023-02-24T08:19:51;100740.94;;;8.24;80.57
63088;BME280;49173;43.164;27.786;2023-02-24T08:22:36;100725.66;;;8.27;80.64
63088;BME280;49173;43.164;27.786;2023-02-24T08:25:03;100723.72;;;8.31;80.28
63088;BME280;49173;43.164;27.786;2023-02-24T08:27:33;100719.25;;;8.32;80.24
63088;BME280;49173;43.164;27.786;2023-02-24T08:30:07;100712.63;;;8.42;80.08
63088;BME280;49173;43.164;27.786;2023-02-24T08:32:36;100701.47;;;8.52;80.26
63088;BME280;49173;43.164;27.786;2023-02-24T08:35:05;100709.94;;;8.64;79.46
63088;BME280;49173;43.164;27.786;2023-02-24T08:37:41;100705.16;;;8.72;78.96
63088;BME280;49173;43.164;27.786;2023-02-24T08:40:31;100710.94;;;8.83;78.98
63088;BME280;49173;43.164;27.786;2023-02-24T08:46:03;100698.63;;;8.99;77.31
63088;BME280;49173;43.164;27.786;2023-02-24T08:48:33;100702.59;;;9.11;77.17
63088;BME280;49173;43.164;27.786;2023-02-24T08:51:13;100693.34;;;9.18;77.17
63088;BME280;49173;43.164;27.786;2023-02-24T08:53:41;100694.06;;;9.22;76.18
63088;BME280;49173;43.164;27.786;2023-02-24T08:56:12;100697.56;;;9.24;75.41
63088;BME280;49173;43.164;27.786;2023-02-24T08:58:40;100694.75;;;9.27;75.78
63088;BME280;49173;43.164;27.786;2023-02-24T09:01:17;100690.94;;;9.32;75.69
63088;BME280;49173;43.164;27.786;2023-02-24T09:03:45;100696.13;;;9.35;74.41
63088;BME280;49173;43.164;27.786;2023-02-24T09:06:15;100694.28;;;9.38;74.83
63088;BME280;49173;43.164;27.786;2023-02-24T09:08:43;100689.78;;;9.38;73.89
63088;BME280;49173;43.164;27.786;2023-02-24T09:11:12;100686.38;;;9.34;74.25
63088;BME280;49173;43.164;27.786;2023-02-24T09:13:41;100682.75;;;9.35;74.72
63088;BME280;49173;43.164;27.786;2023-02-24T09:16:20;100680.06;;;9.35;73.96
63088;BME280;49173;43.164;27.786;2023-02-24T09:18:50;100684.28;;;9.41;74.57
63088;BME280;49173;43.164;27.786;2023-02-24T09:21:36;100673.63;;;9.40;73.44
63088;BME280;49173;43.164;27.786;2023-02-24T09:24:15;100678.84;;;9.43;74.49
63088;BME280;49173;43.164;27.786;2023-02-24T09:26:54;100665.53;;;9.41;74.12
63088;BME280;49173;43.164;27.786;2023-02-24T09:29:28;100666.53;;;9.39;73.65
63088;BME280;49173;43.164;27.786;2023-02-24T09:32:04;100669.06;;;9.42;72.97
63088;BME280;49173;43.164;27.786;2023-02-24T09:34:38;100662.41;;;9.50;73.16
63088;BME280;49173;43.164;27.786;2023-02-24T09:37:12;100674.59;;;9.57;73.04
63088;BME280;49173;43.164;27.786;2023-02-24T09:39:52;100666.34;;;9.62;72.77
63088;BME280;49173;43.164;27.786;2023-02-24T09:42:27;100651.94;;;9.64;72.76
63088;BME280;49173;43.164;27.786;2023-02-24T09:44:56;100653.69;;;9.66;72.97
63088;BME280;49173;43.164;27.786;2023-02-24T09:47:41;100655.34;;;9.68;72.80
63088;BME280;49173;43.164;27.786;2023-02-24T09:52:57;100645.66;;;9.66;72.84
63088;BME280;49173;43.164;27.786;2023-02-24T09:55:57;100640.34;;;9.64;72.66
63088;BME280;49173;43.164;27.786;2023-02-24T10:07:06;100622.38;;;9.85;72.48
63088;BME280;49173;43.164;27.786;2023-02-24T10:09:42;100621.31;;;9.89;72.41
63088;BME280;49173;43.164;27.786;2023-02-24T10:17:48;100593.75;;;10.04;71.28
63088;BME280;49173;43.164;27.786;2023-02-24T10:20:20;100590.59;;;10.13;70.95
63088;BME280;49173;43.164;27.786;2023-02-24T10:23:43;100579.88;;;10.13;70.47
63088;BME280;49173;43.164;27.786;2023-02-24T10:26:43;100575.06;;;10.20;69.80
63088;BME280;49173;43.164;27.786;2023-02-24T10:29:30;100567.84;;;10.22;69.24
63088;BME280;49173;43.164;27.786;2023-02-24T10:32:20;100569.59;;;10.23;70.20
63088;BME280;49173;43.164;27.786;2023-02-24T10:34:56;100561.94;;;10.33;69.48
63088;BME280;49173;43.164;27.786;2023-02-24T10:37:23;100554.63;;;10.36;67.83
63088;BME280;49173;43.164;27.786;2023-02-24T10:40:01;100546.50;;;10.38;67.41
63088;BME280;49173;43.164;27.786;2023-02-24T10:42:35;100539.13;;;10.41;67.74
63088;BME280;49173;43.164;27.786;2023-02-24T10:45:12;100534.41;;;10.47;68.20
63088;BME280;49173;43.164;27.786;2023-02-24T10:47:39;100528.72;;;10.53;67.68
63088;BME280;49173;43.164;27.786;2023-02-24T10:50:21;100529.78;;;10.50;67.25
63088;BME280;49173;43.164;27.786;2023-02-24T10:52:59;100515.47;;;10.50;66.38
63088;BME280;49173;43.164;27.786;2023-02-24T10:55:36;100517.44;;;10.46;66.67
63088;BME280;49173;43.164;27.786;2023-02-24T10:58:31;100501.25;;;10.48;67.23
63088;BME280;49173;43.164;27.786;2023-02-24T11:01:24;100501.16;;;10.49;66.65
63088;BME280;49173;43.164;27.786;2023-02-24T11:04:11;100486.13;;;10.47;65.97
63088;BME280;49173;43.164;27.786;2023-02-24T11:07:09;100485.88;;;10.51;66.52
63088;BME280;49173;43.164;27.786;2023-02-24T11:09:37;100486.56;;;10.55;65.91
63088;BME280;49173;43.164;27.786;2023-02-24T11:12:22;100483.47;;;10.62;66.35
63088;BME280;49173;43.164;27.786;2023-02-24T11:15:31;100476.25;;;10.64;66.92
63088;BME280;49173;43.164;27.786;2023-02-24T11:18:25;100481.66;;;10.63;66.83
63088;BME280;49173;43.164;27.786;2023-02-24T11:23:56;100469.47;;;10.57;66.90
63088;BME280;49173;43.164;27.786;2023-02-24T11:26:31;100468.81;;;10.52;67.48
63088;BME280;49173;43.164;27.786;2023-02-24T11:37:40;100453.34;;;10.57;68.58
63088;BME280;49173;43.164;27.786;2023-02-24T11:40:21;100438.47;;;10.67;69.29
63088;BME280;49173;43.164;27.786;2023-02-24T11:43:08;100431.38;;;10.66;69.66
63088;BME280;49173;43.164;27.786;2023-02-24T11:48:53;100423.41;;;10.65;69.90
63088;BME280;49173;43.164;27.786;2023-02-24T11:51:27;100422.78;;;10.60;69.81
63088;BME280;49173;43.164;27.786;2023-02-24T11:54:04;100426.16;;;10.63;70.02
63088;BME280;49173;43.164;27.786;2023-02-24T11:56:44;100416.81;;;10.70;68.48
63088;BME280;49173;43.164;27.786;2023-02-24T11:59:32;100417.00;;;10.67;68.54
63088;BME280;49173;43.164;27.786;2023-02-24T12:04:45;100411.44;;;10.55;70.42
63088;BME280;49173;43.164;27.786;2023-02-24T12:07:29;100401.88;;;10.49;71.36
63088;BME280;49173;43.164;27.786;2023-02-24T12:12:48;100394.97;;;10.45;69.82
63088;BME280;49173;43.164;27.786;2023-02-24T12:15:27;100392.28;;;10.45;69.90
63088;BME280;49173;43.164;27.786;2023-02-24T12:20:48;100388.66;;;10.46;69.75
63088;BME280;49173;43.164;27.786;2023-02-24T12:23:23;100382.34;;;10.47;68.86
63088;BME280;49173;43.164;27.786;2023-02-24T12:28:40;100363.56;;;10.47;70.22
63088;BME280;49173;43.164;27.786;2023-02-24T12:31:31;100372.22;;;10.52;69.63
63088;BME280;49173;43.164;27.786;2023-02-24T12:34:14;100365.38;;;10.47;70.02
63088;BME280;49173;43.164;27.786;2023-02-24T12:40:27;100357.66;;;10.56;69.62
63088;BME280;49173;43.164;27.786;2023-02-24T12:42:40;100360.88;;;10.63;69.38
63088;BME280;49173;43.164;27.786;2023-02-24T12:45:21;100358.13;;;10.64;69.24
63088;BME280;49173;43.164;27.786;2023-02-24T12:50:55;100364.63;;;10.76;68.32
63088;BME280;49173;43.164;27.786;2023-02-24T12:53:31;100355.03;;;10.72;68.49
63088;BME280;49173;43.164;27.786;2023-02-24T12:58:57;100344.34;;;10.70;67.29
63088;BME280;49173;43.164;27.786;2023-02-24T13:01:35;100345.50;;;10.66;68.20
63088;BME280;49173;43.164;27.786;2023-02-24T13:15:06;100333.97;;;10.64;66.71
63088;BME280;49173;43.164;27.786;2023-02-24T13:17:48;100325.94;;;10.64;67.12
63088;BME280;49173;43.164;27.786;2023-02-24T13:20:35;100324.03;;;10.66;66.72
63088;BME280;49173;43.164;27.786;2023-02-24T13:23:14;100326.69;;;10.66;67.79
63088;BME280;49173;43.164;27.786;2023-02-24T13:25:49;100325.56;;;10.70;68.38
63088;BME280;49173;43.164;27.786;2023-02-24T13:28:25;100323.84;;;10.69;67.83
63088;BME280;49173;43.164;27.786;2023-02-24T13:31:01;100325.84;;;10.50;67.97
63088;BME280;49173;43.164;27.786;2023-02-24T13:33:30;100327.28;;;10.40;68.96
63088;BME280;49173;43.164;27.786;2023-02-24T13:36:18;100316.53;;;10.40;69.70
63088;BME280;49173;43.164;27.786;2023-02-24T13:41:39;100316.75;;;10.53;69.23
63088;BME280;49173;43.164;27.786;2023-02-24T13:49:42;100318.47;;;10.69;69.77
63088;BME280;49173;43.164;27.786;2023-02-24T13:54:52;100313.81;;;10.57;68.71
63088;BME280;49173;43.164;27.786;2023-02-24T14:00:38;100310.41;;;10.21;70.47
63088;BME280;49173;43.164;27.786;2023-02-24T14:03:22;100317.31;;;10.09;70.97
63088;BME280;49173;43.164;27.786;2023-02-24T14:05:50;100307.88;;;10.02;71.90
63088;BME280;49173;43.164;27.786;2023-02-24T14:08:23;100302.41;;;10.03;72.20
63088;BME280;49173;43.164;27.786;2023-02-24T14:10:59;100311.50;;;10.01;72.45
63088;BME280;49173;43.164;27.786;2023-02-24T14:13:28;100297.56;;;9.94;72.47
63088;BME280;49173;43.164;27.786;2023-02-24T14:16:08;100295.75;;;9.95;72.35
63088;BME280;49173;43.164;27.786;2023-02-24T14:18:34;100303.78;;;9.95;72.58
63088;BME280;49173;43.164;27.786;2023-02-24T14:21:02;100305.25;;;10.00;72.60
63088;BME280;49173;43.164;27.786;2023-02-24T14:23:30;100306.19;;;9.99;72.63
63088;BME280;49173;43.164;27.786;2023-02-24T14:26:11;100294.38;;;10.03;72.68
63088;BME280;49173;43.164;27.786;2023-02-24T14:28:40;100292.56;;;10.04;72.26
63088;BME280;49173;43.164;27.786;2023-02-24T14:31:09;100289.53;;;9.94;72.27
63088;BME280;49173;43.164;27.786;2023-02-24T14:33:37;100296.84;;;9.90;72.47
63088;BME280;49173;43.164;27.786;2023-02-24T14:36:06;100290.06;;;9.83;72.00
63088;BME280;49173;43.164;27.786;2023-02-24T14:38:38;100288.66;;;9.76;72.30
63088;BME280;49173;43.164;27.786;2023-02-24T14:41:14;100289.72;;;9.74;72.44
63088;BME280;49173;43.164;27.786;2023-02-24T14:43:42;100295.44;;;9.83;72.82
63088;BME280;49173;43.164;27.786;2023-02-24T14:46:08;100294.06;;;9.92;72.52
63088;BME280;49173;43.164;27.786;2023-02-24T14:48:33;100282.88;;;10.01;71.72
63088;BME280;49173;43.164;27.786;2023-02-24T14:51:16;100279.72;;;9.93;72.33
63088;BME280;49173;43.164;27.786;2023-02-24T14:53:50;100277.84;;;9.95;72.21
63088;BME280;49173;43.164;27.786;2023-02-24T14:56:18;100264.63;;;9.75;72.59
63088;BME280;49173;43.164;27.786;2023-02-24T14:58:50;100266.53;;;9.73;73.05
63088;BME280;49173;43.164;27.786;2023-02-24T15:01:45;100265.25;;;9.80;73.22
63088;BME280;49173;43.164;27.786;2023-02-24T15:06:53;100264.47;;;9.78;73.99
63088;BME280;49173;43.164;27.786;2023-02-24T15:09:21;100258.22;;;9.77;74.09